Time;durP1;ratioP1;P1;durP2;ratioP2;P2;SDS_P1;SDS_P2;PMS_P1;PMS_P2;Temp;Humidity;BMP_temperature;BMP_pressure;BME280_temperature;BME280_humidity;BME280_pressure;Samples;Min_cycle;Max_cycle;Signal;HPM_P1;HPM_P2
2023/03/23 05:22:32;;;;;;;1.15;0.77;;;;;;;14.95;66.20;99472.22;5109966;27;20331;-66
2023/03/23 05:25:02;;;;;;;2.08;1.10;;;;;;;14.91;66.63;99478.00;5108637;28;20032;-67
2023/03/23 05:27:32;;;;;;;0.90;0.73;;;;;;;14.89;67.13;99477.44;5087872;28;20036;-67
2023/03/23 05:30:01;;;;;;;2.35;1.02;;;;;;;14.73;69.01;99469.91;5088101;28;20105;-67
2023/03/23 05:32:28;;;;;;;1.73;1.00;;;;;;;14.71;68.46;99474.69;5088151;28;20028;-68
2023/03/23 05:34:56;;;;;;;1.27;0.93;;;;;;;14.65;69.08;99473.69;5104964;28;20534;-68
2023/03/23 05:37:23;;;;;;;1.98;1.10;;;;;;;14.59;68.46;99471.06;5087571;28;20032;-66
2023/03/23 05:39:56;;;;;;;0.95;0.70;;;;;;;14.60;69.79;99472.69;5090257;28;20025;-68
2023/03/23 05:42:55;;;;;;;3.40;1.20;;;;;;;14.51;68.95;99482.88;5093378;28;20044;-67
2023/03/23 05:45:28;;;;;;;1.73;1.10;;;;;;;14.54;68.96;99476.25;5087826;28;20119;-67
2023/03/23 05:47:56;;;;;;;1.20;0.90;;;;;;;14.46;69.53;99487.22;5085694;28;20119;-68
2023/03/23 05:50:25;;;;;;;0.95;0.85;;;;;;;14.43;71.79;99488.47;5117879;28;20497;-67
2023/03/23 05:52:51;;;;;;;1.65;1.10;;;;;;;14.34;73.65;99498.63;5104650;28;20037;-69
2023/03/23 05:55:19;;;;;;;0.80;0.80;;;;;;;14.27;73.47;99499.69;5087548;28;20037;-67
2023/03/23 05:57:51;;;;;;;1.17;1.00;;;;;;;14.23;75.15;99510.03;5104243;28;20036;-67
2023/03/23 06:00:28;;;;;;;1.55;1.00;;;;;;;14.14;76.38;99505.94;5087434;28;20476;-67
2023/03/23 06:03:01;;;;;;;1.70;0.90;;;;;;;14.08;75.34;99506.78;5087564;28;20119;-68
2023/03/23 06:05:45;;;;;;;2.42;1.17;;;;;;;14.06;75.97;99504.34;5087198;28;20500;-67
2023/03/23 06:08:14;;;;;;;1.15;1.05;;;;;;;14.05;76.19;99507.22;5087150;28;20412;-68
2023/03/23 06:10:40;;;;;;;1.30;0.90;;;;;;;14.10;75.58;99500.22;5087236;28;20033;-68
2023/03/23 06:13:05;;;;;;;1.80;1.20;;;;;;;14.06;75.66;99506.19;5087579;28;20551;-67
2023/03/23 06:15:35;;;;;;;3.13;1.20;;;;;;;13.99;76.80;99508.09;5087202;28;20040;-67
2023/03/23 06:18:12;;;;;;;1.55;0.98;;;;;;;13.98;77.42;99506.44;5087361;28;20039;-67
2023/03/23 06:21:07;;;;;;;1.25;1.00;;;;;;;13.96;76.58;99506.66;5083971;28;20127;-67
2023/03/23 06:23:52;;;;;;;1.65;1.00;;;;;;;13.95;77.47;99507.69;5087210;28;20085;-67
2023/03/23 06:26:20;;;;;;;1.35;0.95;;;;;;;13.95;77.40;99504.19;5086981;28;20481;-67
2023/03/23 06:28:51;;;;;;;0.82;0.82;;;;;;;13.95;78.15;99513.03;5086700;28;20044;-67
2023/03/23 06:31:19;;;;;;;3.33;1.15;;;;;;;13.88;78.02;99500.72;5086977;28;20044;-67
2023/03/23 06:33:45;;;;;;;1.73;1.00;;;;;;;13.95;78.15;99523.75;5074262;28;20037;-68
2023/03/23 06:36:26;;;;;;;2.00;1.02;;;;;;;13.98;78.93;99522.50;5074583;28;20070;-67
2023/03/23 06:39:22;;;;;;;2.05;1.40;;;;;;;13.91;79.59;99521.72;5065178;28;20040;-67
2023/03/23 06:41:57;;;;;;;2.72;1.35;;;;;;;13.91;79.69;99530.56;5073287;28;20090;-68
2023/03/23 06:44:22;;;;;;;1.83;1.23;;;;;;;13.88;80.34;99535.50;5073296;28;20564;-67
2023/03/23 06:46:48;;;;;;;1.98;1.52;;;;;;;13.89;80.79;99539.81;5072879;28;20124;-67
2023/03/23 06:49:30;;;;;;;1.35;1.15;;;;;;;13.88;80.78;99543.53;5073273;28;20036;-67
2023/03/23 06:52:06;;;;;;;1.23;0.80;;;;;;;13.86;79.77;99546.44;5057651;28;20033;-67
2023/03/23 06:54:31;;;;;;;3.00;1.27;;;;;;;13.87;79.95;99557.97;5072928;28;20029;-67
2023/03/23 06:56:59;;;;;;;2.38;0.95;;;;;;;13.78;79.54;99554.72;5072669;28;20291;-67
2023/03/23 06:59:25;;;;;;;1.50;1.10;;;;;;;13.76;79.95;99568.31;5072863;28;20519;-67
2023/03/23 07:01:50;;;;;;;1.20;1.05;;;;;;;13.76;79.16;99575.53;5073049;28;20532;-67
2023/03/23 07:04:16;;;;;;;1.52;0.98;;;;;;;13.80;78.51;99596.28;5072906;28;20493;-67
2023/03/23 07:06:53;;;;;;;1.73;1.33;;;;;;;13.75;78.97;99598.75;5072647;28;20032;-67
2023/03/23 07:09:19;;;;;;;1.02;0.88;;;;;;;13.69;79.92;99596.94;5072645;28;20051;-67
2023/03/23 07:11:47;;;;;;;1.50;1.02;;;;;;;13.70;81.88;99601.25;5074062;28;20029;-67
2023/03/23 07:14:24;;;;;;;1.17;0.98;;;;;;;13.62;85.21;99590.75;5072796;28;20559;-56
2023/03/23 07:16:51;;;;;;;4.53;2.28;;;;;;;13.56;86.10;99595.13;5072374;28;20072;-54
2023/03/23 07:19:16;;;;;;;2.60;1.50;;;;;;;13.55;87.21;99597.97;5072553;28;20123;-52
2023/03/23 07:21:42;;;;;;;2.55;1.50;;;;;;;13.45;88.62;99586.91;5072348;28;20119;-56
2023/03/23 07:24:18;;;;;;;2.17;1.55;;;;;;;13.43;88.88;99584.44;5072548;28;20090;-52
2023/03/23 07:26:59;;;;;;;1.33;1.02;;;;;;;13.32;93.11;99595.75;5089035;28;20396;-56
2023/03/23 07:29:26;;;;;;;2.25;1.38;;;;;;;13.35;93.34;99589.97;5072463;28;20037;-66
2023/03/23 07:32:01;;;;;;;2.05;1.42;;;;;;;13.31;92.83;99599.47;5072393;28;20455;-67
2023/03/23 07:34:27;;;;;;;2.35;1.58;;;;;;;13.29;93.11;99593.47;5073602;28;20032;-67
2023/03/23 07:37:08;;;;;;;2.13;1.30;;;;;;;13.29;92.87;99596.97;5088692;28;20035;-67
2023/03/23 07:39:35;;;;;;;1.83;1.27;;;;;;;13.27;92.47;99590.19;5072232;28;20127;-67
2023/03/23 07:42:01;;;;;;;2.10;1.35;;;;;;;13.27;92.37;99593.69;5078369;28;20036;-66
2023/03/23 07:44:46;;;;;;;2.83;1.73;;;;;;;13.30;91.78;99604.00;5071157;28;20032;-66
2023/03/23 07:47:13;;;;;;;1.50;1.30;;;;;;;13.27;92.24;99590.19;5088585;28;20039;-66
2023/03/23 07:49:39;;;;;;;1.58;1.20;;;;;;;13.39;91.95;99598.44;5071926;28;20040;-66
2023/03/23 07:52:15;;;;;;;1.87;1.40;;;;;;;13.35;90.38;99603.34;5088937;28;20036;-66
2023/03/23 07:54:41;;;;;;;1.60;1.15;;;;;;;13.35;91.34;99600.66;5073202;28;20279;-67
2023/03/23 07:57:15;;;;;;;1.73;1.20;;;;;;;13.36;91.14;99607.66;5071484;28;20037;-67
2023/03/23 07:59:46;;;;;;;1.30;1.20;;;;;;;13.37;90.98;99609.34;5071682;28;20042;-67
2023/03/23 08:02:13;;;;;;;3.58;1.40;;;;;;;13.34;91.31;99607.06;5071718;28;20045;-67
2023/03/23 08:04:53;;;;;;;2.50;1.77;;;;;;;13.37;91.28;99613.88;5088593;28;20033;-67
2023/03/23 08:07:30;;;;;;;2.28;1.38;;;;;;;13.43;91.52;99615.69;5105092;28;20035;-67
2023/03/23 08:10:04;;;;;;;2.22;1.20;;;;;;;13.56;90.20;99613.84;5071770;28;20036;-67
2023/03/23 08:12:29;;;;;;;1.17;1.00;;;;;;;13.69;88.55;99614.84;5072784;28;20120;-67
2023/03/23 08:15:16;;;;;;;2.17;1.45;;;;;;;13.83;87.86;99611.94;5073066;28;20050;-67
2023/03/23 08:18:05;;;;;;;4.97;1.60;;;;;;;13.95;87.15;99613.94;5061715;28;20040;-67
2023/03/23 08:20:49;;;;;;;2.15;1.10;;;;;;;14.03;86.67;99611.06;5072534;28;20047;-67
2023/03/23 08:23:26;;;;;;;1.42;1.02;;;;;;;14.13;85.69;99622.13;5071463;28;20062;-67
2023/03/23 08:26:17;;;;;;;1.40;1.10;;;;;;;14.24;84.73;99624.16;5071349;28;20044;-67
2023/03/23 08:28:53;;;;;;;;;;;;;;;14.34;85.42;99619.19;5071453;28;20489;-67
2023/03/23 08:31:44;;;;;;;2.85;1.17;;;;;;;14.50;82.88;99620.59;5061975;28;20443;-67
2023/03/23 08:34:42;;;;;;;1.50;0.80;;;;;;;14.58;83.77;99620.31;5058830;28;20052;-67
2023/03/23 08:37:26;;;;;;;2.20;1.23;;;;;;;14.76;82.46;99619.63;5072064;28;20052;-68
2023/03/23 08:40:09;;;;;;;2.67;1.25;;;;;;;14.87;80.33;99620.81;5105144;28;20036;-67
2023/03/23 08:42:49;;;;;;;1.40;0.90;;;;;;;14.93;81.61;99626.13;5071074;28;20035;-68
2023/03/23 08:45:30;;;;;;;1.88;1.40;;;;;;;15.15;80.36;99631.94;5072365;28;20048;-67
2023/03/23 08:48:13;;;;;;;1.55;1.17;;;;;;;15.26;78.96;99627.75;5070724;28;20398;-68
2023/03/23 08:51:13;;;;;;;1.27;1.02;;;;;;;15.37;77.42;99643.09;5072113;28;20041;-67
2023/03/23 08:53:44;;;;;;;2.70;1.27;;;;;;;15.46;77.10;99649.03;5072118;28;20048;-67
2023/03/23 08:56:29;;;;;;;1.20;1.00;;;;;;;15.55;75.63;99646.91;5072322;28;20040;-67
2023/03/23 08:59:14;;;;;;;1.02;0.93;;;;;;;15.43;74.26;99657.53;5050544;28;20771;-67
2023/03/23 09:01:59;;;;;;;0.63;0.63;;;;;;;15.39;74.33;99665.19;5071984;28;20048;-68
2023/03/23 09:04:44;;;;;;;1.10;0.80;;;;;;;15.35;75.22;99668.53;5064615;28;20079;-67
2023/03/23 09:07:29;;;;;;;1.10;1.00;;;;;;;15.36;74.72;99673.66;5071702;28;20417;-67
2023/03/23 09:09:54;;;;;;;1.05;0.77;;;;;;;15.24;76.85;99683.47;5072029;28;20045;-67
2023/03/23 09:12:19;;;;;;;0.95;0.68;;;;;;;15.19;77.78;99672.53;5072097;28;20020;-67
2023/03/23 09:14:45;;;;;;;1.08;0.98;;;;;;;15.02;77.99;99683.00;5071841;28;20485;-69
2023/03/23 09:17:11;;;;;;;0.75;0.68;;;;;;;15.07;78.27;99679.66;5071694;28;20040;-69
2023/03/23 09:19:37;;;;;;;1.00;0.80;;;;;;;15.02;78.27;99690.22;5072029;28;20063;-67
2023/03/23 09:22:03;;;;;;;0.65;0.65;;;;;;;15.11;79.36;99683.53;5071767;28;20565;-67
2023/03/23 09:24:29;;;;;;;1.45;0.80;;;;;;;15.22;79.29;99695.47;5070716;28;20032;-67
2023/03/23 09:26:55;;;;;;;1.70;0.70;;;;;;;15.31;77.19;99700.31;5071579;28;20041;-68
2023/03/23 09:29:20;;;;;;;0.93;0.80;;;;;;;15.26;77.64;99696.66;5071730;28;20493;-67
2023/03/23 09:31:46;;;;;;;1.08;0.80;;;;;;;15.17;79.38;99690.72;5071758;28;20036;-67
2023/03/23 09:34:15;;;;;;;1.30;0.90;;;;;;;15.19;79.28;99702.91;5071795;28;20123;-68
2023/03/23 09:36:41;;;;;;;1.08;0.70;;;;;;;15.15;80.45;99712.41;5071672;28;20044;-67
2023/03/23 09:39:08;;;;;;;0.98;0.85;;;;;;;15.07;80.79;99719.91;5071486;28;20059;-68
2023/03/23 09:42:06;;;;;;;1.55;0.80;;;;;;;14.83;82.30;99708.06;5071734;28;20069;-67
2023/03/23 09:44:55;;;;;;;0.82;0.68;;;;;;;14.74;84.91;99715.53;5071876;28;20037;-67
2023/03/23 09:47:31;;;;;;;0.90;0.75;;;;;;;14.65;85.48;99714.94;5071352;28;20040;-68
2023/03/23 09:50:03;;;;;;;0.60;0.60;;;;;;;14.55;86.74;99714.56;5071601;28;20477;-67
2023/03/23 09:53:08;;;;;;;1.70;0.70;;;;;;;14.47;89.26;99724.69;5071710;28;20549;-67
2023/03/23 09:55:34;;;;;;;0.80;0.70;;;;;;;14.42;90.68;99721.81;5071746;28;20056;-68
2023/03/23 09:58:14;;;;;;;0.50;0.50;;;;;;;14.35;92.67;99727.19;5071262;28;20044;-66
2023/03/23 10:00:45;;;;;;;0.80;0.63;;;;;;;14.24;93.99;99731.31;5071497;28;20036;-67
2023/03/23 10:03:16;;;;;;;0.88;0.65;;;;;;;14.16;94.98;99728.88;5071573;28;20041;-69
2023/03/23 10:05:45;;;;;;;0.77;0.50;;;;;;;14.03;94.26;99729.72;5071565;28;20047;-66
2023/03/23 10:08:14;;;;;;;1.05;0.80;;;;;;;14.00;94.62;99729.28;5073007;28;20033;-69
2023/03/23 10:11:08;;;;;;;1.52;0.70;;;;;;;13.94;95.23;99730.13;5090745;28;20551;-68
2023/03/23 10:13:37;;;;;;;0.47;0.47;;;;;;;13.77;97.51;99727.06;5074281;28;20045;-67
2023/03/23 10:16:08;;;;;;;1.83;0.60;;;;;;;13.79;97.99;99733.00;5075027;28;20041;-67
2023/03/23 10:18:41;;;;;;;0.88;0.60;;;;;;;13.76;97.38;99734.25;5074616;28;20036;-67
2023/03/23 10:21:16;;;;;;;0.70;0.50;;;;;;;13.76;98.22;99725.41;5074764;28;20082;-67
2023/03/23 10:24:03;;;;;;;0.65;0.60;;;;;;;13.79;98.04;99733.84;5074771;28;20028;-66
2023/03/23 10:27:04;;;;;;;0.55;0.55;;;;;;;13.80;97.77;99738.16;5075005;28;20440;-66
2023/03/23 10:29:36;;;;;;;1.38;0.50;;;;;;;13.73;100.00;99728.47;5074660;28;20400;-67
2023/03/23 10:32:13;;;;;;;0.88;0.50;;;;;;;13.79;100.00;99730.34;5074759;28;20112;-67
2023/03/23 10:34:47;;;;;;;0.70;0.60;;;;;;;13.81;100.00;99736.31;5074682;28;20123;-67
2023/03/23 10:37:16;;;;;;;1.50;0.60;;;;;;;13.80;100.00;99727.44;5074427;28;20036;-67
2023/03/23 10:39:50;;;;;;;0.60;0.60;;;;;;;13.74;99.98;99736.31;5074764;28;20119;-67
2023/03/23 10:42:28;;;;;;;0.57;0.57;;;;;;;13.69;100.00;99732.59;5074540;28;20041;-67
2023/03/23 10:44:56;;;;;;;1.20;0.73;;;;;;;13.66;100.00;99736.50;5074631;28;20032;-67
2023/03/23 10:47:22;;;;;;;1.17;0.90;;;;;;;13.55;99.38;99721.06;5074165;28;20079;-67
2023/03/23 10:49:56;;;;;;;0.68;0.60;;;;;;;13.65;97.96;99729.53;5074409;28;20078;-67
2023/03/23 10:52:41;;;;;;;1.58;0.90;;;;;;;13.63;96.52;99730.72;5074667;28;20040;-67
2023/03/23 10:55:09;;;;;;;0.85;0.60;;;;;;;13.67;96.34;99723.94;5074124;28;20024;-67
2023/03/23 10:57:37;;;;;;;1.17;0.77;;;;;;;13.63;95.09;99718.22;5074119;28;20037;-67
2023/03/23 11:00:13;;;;;;;0.73;0.73;;;;;;;13.69;94.22;99720.06;5074211;28;20086;-67
2023/03/23 11:02:56;;;;;;;0.47;0.43;;;;;;;13.73;95.26;99726.63;5074266;28;20044;-67
2023/03/23 11:05:35;;;;;;;1.40;0.85;;;;;;;13.78;95.17;99734.88;5072175;28;20410;-67
2023/03/23 11:08:01;;;;;;;0.95;0.88;;;;;;;13.84;95.38;99743.94;5072301;28;20045;-67
2023/03/23 11:10:47;;;;;;;1.10;0.80;;;;;;;13.89;95.14;99743.28;5072859;28;20028;-67
2023/03/23 11:13:16;;;;;;;0.73;0.60;;;;;;;13.92;96.51;99738.38;5073571;28;20062;-68
2023/03/23 11:15:47;;;;;;;1.05;0.60;;;;;;;13.94;94.50;99749.69;5072555;28;20021;-66
2023/03/23 11:18:24;;;;;;;1.15;0.70;;;;;;;13.94;96.89;99751.53;5072070;28;20466;-67
2023/03/23 11:20:54;;;;;;;0.73;0.60;;;;;;;13.93;96.10;99756.06;5072964;28;20074;-67
2023/03/23 11:23:22;;;;;;;1.55;0.63;;;;;;;13.89;96.85;99765.56;5073978;28;20043;-68
2023/03/23 11:26:20;;;;;;;0.95;0.68;;;;;;;13.85;98.18;99762.47;5056897;28;20044;-66
2023/03/23 11:28:59;;;;;;;1.23;0.95;;;;;;;13.81;97.07;99760.38;5073489;28;20111;-67
2023/03/23 11:31:33;;;;;;;1.40;0.77;;;;;;;13.74;98.67;99757.72;5073669;28;20481;-66
2023/03/23 11:34:03;;;;;;;0.80;0.75;;;;;;;13.80;97.66;99754.22;5073537;28;20047;-66
2023/03/23 11:36:32;;;;;;;0.52;0.50;;;;;;;13.83;97.13;99753.81;5073819;28;20055;-67
2023/03/23 11:38:58;;;;;;;1.23;0.70;;;;;;;13.89;97.70;99751.31;5073317;28;20115;-67
2023/03/23 11:41:28;;;;;;;1.23;0.80;;;;;;;13.91;97.43;99735.91;5073369;28;20162;-67
2023/03/23 11:43:53;;;;;;;1.15;1.05;;;;;;;13.98;97.60;99734.03;5073392;28;20516;-67
2023/03/23 11:46:34;;;;;;;1.35;0.80;;;;;;;14.03;96.89;99727.03;5073220;28;20036;-66
2023/03/23 11:49:09;;;;;;;0.77;0.73;;;;;;;14.11;93.43;99728.66;5072911;28;20119;-67
2023/03/23 11:51:54;;;;;;;2.05;1.08;;;;;;;14.18;92.28;99718.75;5073430;28;20119;-67
2023/03/23 11:54:30;;;;;;;1.15;1.02;;;;;;;14.21;92.44;99718.31;5073257;28;20040;-67
2023/03/23 11:56:56;;;;;;;1.30;1.00;;;;;;;14.31;91.94;99718.72;5072959;28;20051;-67
2023/03/23 11:59:33;;;;;;;2.78;1.17;;;;;;;14.36;90.83;99720.78;5072972;28;20020;-67
2023/03/23 12:02:20;;;;;;;1.37;0.83;;;;;;;14.35;92.82;99719.97;5072989;28;20052;-67
2023/03/23 12:05:14;;;;;;;1.65;1.30;;;;;;;14.36;92.20;99718.94;5073166;28;20111;-67
2023/03/23 12:08:06;;;;;;;2.55;1.30;;;;;;;14.38;92.41;99716.03;5072688;28;20032;-67
2023/03/23 12:10:56;;;;;;;1.65;0.85;;;;;;;14.42;90.77;99709.22;5072864;28;20060;-67
2023/03/23 12:13:52;;;;;;;0.80;0.80;;;;;;;14.44;91.67;99709.81;5073098;28;20417;-68
2023/03/23 12:16:27;;;;;;;1.20;1.00;;;;;;;14.55;90.56;99697.66;5072603;28;20044;-68
2023/03/23 12:19:02;;;;;;;1.15;1.00;;;;;;;14.62;88.97;99701.97;5072524;28;20107;-68
2023/03/23 12:21:45;;;;;;;1.63;1.27;;;;;;;14.72;88.62;99695.31;5072531;28;20036;-67
2023/03/23 12:24:17;;;;;;;1.50;0.80;;;;;;;14.82;85.60;99691.16;5072645;28;20036;-67
2023/03/23 12:27:09;;;;;;;0.95;0.73;;;;;;;14.90;86.23;99688.22;5072497;28;20047;-67
2023/03/23 12:29:40;;;;;;;1.70;0.90;;;;;;;15.00;84.32;99684.25;5068591;28;20158;-67
2023/03/23 12:32:33;;;;;;;1.50;0.80;;;;;;;15.19;77.64;99688.66;5072158;28;20041;-68
2023/03/23 12:35:17;;;;;;;0.80;0.47;;;;;;;15.17;79.58;99686.19;5072361;28;20489;-66
2023/03/23 12:37:46;;;;;;;1.00;0.52;;;;;;;15.31;75.65;99680.72;5072197;28;20043;-67
2023/03/23 12:40:21;;;;;;;0.40;0.32;;;;;;;15.30;74.81;99673.72;5072400;28;20090;-69
2023/03/23 12:42:58;;;;;;;1.02;0.57;;;;;;;15.35;73.16;99673.91;5072287;28;20037;-67
2023/03/23 12:45:51;;;;;;;0.93;0.70;;;;;;;15.35;75.73;99681.94;5072166;28;20528;-66
2023/03/23 12:48:24;;;;;;;0.90;0.60;;;;;;;15.36;75.76;99673.66;5072039;28;20418;-67
2023/03/23 12:51:11;;;;;;;0.50;0.50;;;;;;;15.45;75.18;99669.69;5072227;28;20028;-67
2023/03/23 12:53:47;;;;;;;1.40;0.95;;;;;;;15.50;74.13;99660.16;5072040;28;20131;-67
2023/03/23 12:56:37;;;;;;;1.17;0.77;;;;;;;15.46;73.03;99659.78;5071984;28;20043;-67
2023/03/23 12:59:20;;;;;;;1.83;0.60;;;;;;;15.47;75.45;99656.06;5071813;28;20114;-67
2023/03/23 13:01:52;;;;;;;2.50;1.05;;;;;;;15.50;73.65;99665.50;5072012;28;20378;-68
2023/03/23 13:04:23;;;;;;;2.15;1.00;;;;;;;15.54;72.53;99656.81;5072138;28;20456;-67
2023/03/23 13:06:48;;;;;;;0.98;0.60;;;;;;;15.54;72.32;99653.31;5071733;28;20067;-67
2023/03/23 13:09:20;;;;;;;1.38;0.63;;;;;;;15.53;71.85;99654.34;5071752;28;20493;-67
2023/03/23 13:11:47;;;;;;;0.77;0.50;;;;;;;15.57;71.53;99656.38;5071817;28;20469;-67
2023/03/23 13:14:37;;;;;;;1.10;0.80;;;;;;;15.64;71.32;99656.34;5072061;28;20036;-67
2023/03/23 13:17:32;;;;;;;1.17;0.73;;;;;;;15.57;72.98;99644.81;5070479;28;20505;-67
2023/03/23 13:20:17;;;;;;;0.85;0.65;;;;;;;15.66;73.03;99633.63;5072078;28;20040;-67
2023/03/23 13:23:17;;;;;;;0.77;0.75;;;;;;;15.69;70.84;99640.38;5071812;28;20496;-66
2023/03/23 13:26:13;;;;;;;0.70;0.70;;;;;;;15.73;70.67;99637.06;5070826;28;20044;-67
2023/03/23 13:29:01;;;;;;;0.88;0.70;;;;;;;15.81;72.42;99633.25;5071893;28;20036;-67
2023/03/23 13:31:33;;;;;;;0.93;0.70;;;;;;;15.83;73.67;99620.41;5071757;28;20540;-67
2023/03/23 13:34:22;;;;;;;1.75;1.00;;;;;;;15.88;72.06;99607.16;5070743;28;20058;-67
2023/03/23 13:40:36;;;;;;;0.50;0.50;;;;;;;16.21;69.43;99597.88;5072032;28;20105;-68
2023/03/23 13:43:01;;;;;;;1.05;0.80;;;;;;;16.23;70.04;99601.16;5073539;28;20480;-68
2023/03/23 13:45:30;;;;;;;1.42;1.00;;;;;;;16.31;69.06;99598.19;5075545;28;20107;-68
2023/03/23 13:48:12;;;;;;;1.05;1.00;;;;;;;16.27;70.35;99591.63;5074953;28;20039;-68
2023/03/23 13:50:50;;;;;;;1.50;1.10;;;;;;;16.31;70.58;99592.81;5069958;28;20032;-68
2023/03/23 13:53:32;;;;;;;0.68;0.65;;;;;;;16.35;70.52;99582.41;5072424;28;20032;-69
2023/03/23 13:56:05;;;;;;;0.95;0.90;;;;;;;16.43;69.51;99582.09;5075411;28;20071;-68
2023/03/23 13:58:31;;;;;;;1.02;0.88;;;;;;;16.44;69.98;99581.88;5075107;28;20367;-68
2023/03/23 14:01:18;;;;;;;1.45;1.05;;;;;;;16.37;69.88;99573.09;5075281;28;20024;-68
2023/03/23 14:03:50;;;;;;;;;;;;;;;16.50;70.44;99572.91;5075707;28;20044;-68
2023/03/23 14:06:19;;;;;;;1.08;1.00;;;;;;;16.54;69.99;99568.72;5075063;28;19943;-69
2023/03/23 14:09:24;;;;;;;1.20;1.10;;;;;;;16.63;70.45;99565.72;5072742;28;20408;-69
2023/03/23 14:11:59;;;;;;;1.92;1.08;;;;;;;16.70;69.46;99564.59;5074915;28;20039;-68
2023/03/23 14:14:31;;;;;;;1.27;1.00;;;;;;;16.79;70.25;99568.59;5075031;28;20127;-67
2023/03/23 14:17:08;;;;;;;1.30;1.02;;;;;;;16.90;68.73;99577.75;5074716;28;20032;-66
2023/03/23 14:19:38;;;;;;;2.58;1.30;;;;;;;16.88;68.29;99579.81;5075123;28;20511;-67
2023/03/23 14:22:04;;;;;;;1.05;0.95;;;;;;;16.86;68.68;99578.44;5074816;28;20044;-67
2023/03/23 14:24:40;;;;;;;1.48;1.17;;;;;;;16.86;68.17;99565.78;5074965;28;20052;-66
2023/03/23 14:27:05;;;;;;;1.88;1.10;;;;;;;16.81;67.72;99565.66;5074529;28;20043;-67
2023/03/23 14:29:31;;;;;;;1.77;1.02;;;;;;;16.76;67.00;99557.50;5074691;28;20024;-67
2023/03/23 14:31:58;;;;;;;2.15;1.20;;;;;;;16.79;66.23;99551.63;5074800;28;20474;-67
2023/03/23 14:34:27;;;;;;;1.55;0.95;;;;;;;16.72;67.06;99550.91;5074723;28;20511;-67
2023/03/23 14:36:54;;;;;;;1.58;1.20;;;;;;;16.73;67.02;99553.38;5074483;28;20089;-67
2023/03/23 14:39:26;;;;;;;1.33;1.05;;;;;;;16.70;67.25;99553.84;5074593;28;20198;-67
2023/03/23 14:41:54;;;;;;;1.52;1.00;;;;;;;16.71;67.84;99554.66;5074690;28;20032;-67
2023/03/23 14:44:31;;;;;;;1.75;0.90;;;;;;;16.69;68.67;99554.00;5074560;28;20042;-67
2023/03/23 14:47:00;;;;;;;2.25;1.17;;;;;;;16.69;68.99;99545.94;5074446;28;20036;-67
2023/03/23 14:49:31;;;;;;;1.00;0.90;;;;;;;16.61;68.03;99544.41;5074440;28;20666;-66
2023/03/23 14:51:56;;;;;;;1.80;1.10;;;;;;;16.68;67.64;99547.81;5074485;28;20033;-66
2023/03/23 14:54:28;;;;;;;1.15;1.02;;;;;;;16.67;67.80;99550.75;5073812;28;20051;-65
2023/03/23 14:56:55;;;;;;;1.08;0.98;;;;;;;16.63;69.13;99553.09;5074216;28;20097;-66
2023/03/23 14:59:21;;;;;;;0.80;0.80;;;;;;;16.60;68.53;99555.41;5074080;28;20094;-67
2023/03/23 15:01:50;;;;;;;1.00;0.90;;;;;;;16.59;68.63;99556.47;5073976;28;20024;-67
2023/03/23 15:04:23;;;;;;;1.45;1.10;;;;;;;16.53;68.58;99556.31;5074399;28;20041;-67
2023/03/23 15:06:54;;;;;;;2.42;1.20;;;;;;;16.45;68.98;99556.66;5074001;28;20390;-67
2023/03/23 15:09:22;;;;;;;1.05;0.95;;;;;;;16.48;69.63;99556.19;5073994;28;20040;-67
2023/03/23 15:11:55;;;;;;;1.60;1.20;;;;;;;16.42;69.45;99546.34;5074202;28;20503;-67
2023/03/23 15:14:23;;;;;;;1.73;1.25;;;;;;;16.40;69.63;99556.50;5074018;28;20036;-67
2023/03/23 15:16:52;;;;;;;1.40;1.15;;;;;;;16.40;69.88;99558.38;5073795;28;20032;-67
2023/03/23 15:19:41;;;;;;;1.30;1.20;;;;;;;16.39;70.48;99549.50;5073775;28;20064;-67
2023/03/23 15:22:29;;;;;;;2.67;1.10;;;;;;;16.37;70.91;99556.16;5073887;28;20029;-67
2023/03/23 15:25:12;;;;;;;1.58;1.40;;;;;;;16.36;71.54;99552.63;5073926;28;20474;-67
2023/03/23 15:27:50;;;;;;;1.38;1.27;;;;;;;16.34;71.52;99560.09;5073485;28;20028;-67
2023/03/23 15:30:21;;;;;;;1.13;0.90;;;;;;;16.34;71.66;99560.09;5073723;28;20075;-66
2023/03/23 15:32:47;;;;;;;1.70;1.20;;;;;;;16.30;72.53;99564.31;5073700;28;20055;-67
2023/03/23 15:35:19;;;;;;;1.83;1.13;;;;;;;16.27;72.33;99557.50;5073685;28;20477;-67
2023/03/23 15:37:47;;;;;;;1.67;1.25;;;;;;;16.28;72.59;99563.69;5073274;28;20036;-67
2023/03/23 15:40:21;;;;;;;1.15;1.05;;;;;;;16.26;72.09;99558.56;5073450;28;20075;-67
2023/03/23 15:42:48;;;;;;;1.70;1.10;;;;;;;16.24;72.53;99552.59;5073481;28;20036;-67
2023/03/23 15:45:13;;;;;;;1.67;1.17;;;;;;;16.21;72.23;99553.03;5073375;28;20037;-67
2023/03/23 15:47:41;;;;;;;1.67;1.00;;;;;;;16.24;71.52;99547.22;5073155;28;20194;-66
2023/03/23 15:50:16;;;;;;;2.03;1.10;;;;;;;16.26;70.92;99557.72;5069525;28;20600;-67
2023/03/23 15:52:42;;;;;;;2.00;1.30;;;;;;;16.24;71.52;99549.09;5069268;28;20032;-68
2023/03/23 15:55:20;;;;;;;2.67;1.20;;;;;;;16.24;72.19;99554.47;5071557;28;20120;-67
2023/03/23 15:57:46;;;;;;;2.83;1.40;;;;;;;16.24;72.83;99551.78;5070372;28;20028;-67
2023/03/23 16:00:12;;;;;;;2.97;1.95;;;;;;;16.15;73.84;99553.94;5073158;28;20648;-67
2023/03/23 16:02:37;;;;;;;3.97;2.58;;;;;;;16.16;72.41;99547.50;5073224;28;20495;-46
2023/03/23 16:05:03;;;;;;;2.55;1.45;;;;;;;16.13;73.83;99541.78;5072254;28;20040;-49
2023/03/23 16:07:29;;;;;;;2.10;1.23;;;;;;;16.10;75.27;99548.41;5071926;28;20028;-55
2023/03/23 16:09:55;;;;;;;1.50;1.30;;;;;;;16.08;76.21;99547.00;5072810;28;20515;-50
2023/03/23 16:12:20;;;;;;;2.65;1.83;;;;;;;16.08;76.81;99544.31;5072754;28;20048;-53
2023/03/23 16:14:46;;;;;;;2.22;0.93;;;;;;;16.09;77.23;99540.59;5072606;28;20048;-53
2023/03/23 16:17:16;;;;;;;4.00;2.50;;;;;;;16.07;77.10;99537.31;5072420;28;20032;-55
2023/03/23 16:19:41;;;;;;;3.20;1.33;;;;;;;16.01;75.53;99534.47;5072746;28;20455;-50
2023/03/23 16:22:08;;;;;;;2.30;1.10;;;;;;;15.97;75.21;99533.31;5072383;28;20064;-48
2023/03/23 16:24:33;;;;;;;1.88;1.35;;;;;;;15.97;76.27;99532.47;5072684;28;20394;-49
2023/03/23 16:26:59;;;;;;;2.58;1.17;;;;;;;15.94;77.46;99532.91;5072258;28;20044;-48
2023/03/23 16:29:24;;;;;;;3.83;1.90;;;;;;;15.94;77.60;99533.75;5072663;28;20048;-54
2023/03/23 16:31:49;;;;;;;1.17;1.05;;;;;;;15.93;79.05;99521.38;5072457;28;20047;-54
2023/03/23 16:34:15;;;;;;;5.00;3.08;;;;;;;15.89;79.16;99519.34;5072599;28;20092;-53
2023/03/23 16:36:40;;;;;;;2.45;1.42;;;;;;;15.88;78.61;99510.47;5072314;28;20719;-52
2023/03/23 16:39:06;;;;;;;3.22;1.60;;;;;;;15.94;77.92;99506.88;5072117;28;20040;-49
2023/03/23 16:41:31;;;;;;;3.35;2.42;;;;;;;15.89;79.06;99505.91;5072079;28;20048;-48
2023/03/23 16:43:57;;;;;;;1.60;1.25;;;;;;;15.86;78.32;99501.00;5072372;28;20098;-66
2023/03/23 16:46:23;;;;;;;1.67;1.00;;;;;;;15.85;78.99;99508.25;5072218;28;20040;-62
2023/03/23 16:48:49;;;;;;;4.15;2.72;;;;;;;15.83;80.00;99510.31;5071971;28;20122;-64
2023/03/23 16:51:14;;;;;;;1.25;1.15;;;;;;;15.81;80.44;99495.50;5072172;28;20037;-65
2023/03/23 16:53:40;;;;;;;1.50;1.27;;;;;;;15.81;80.76;99495.50;5072244;28;20032;-65
2023/03/23 16:56:06;;;;;;;1.58;1.30;;;;;;;15.80;79.88;99492.00;5072036;28;20499;-63
2023/03/23 16:58:31;;;;;;;2.90;1.20;;;;;;;15.79;78.32;99493.03;5071996;28;20036;-64
2023/03/23 17:00:56;;;;;;;1.75;1.20;;;;;;;15.78;78.51;99493.25;5072061;28;20409;-66
2023/03/23 17:03:22;;;;;;;2.20;1.42;;;;;;;15.74;81.95;99490.19;5072087;28;20041;-66
2023/03/23 17:05:49;;;;;;;3.80;1.30;;;;;;;15.72;82.89;99489.63;5071834;28;20055;-63
2023/03/23 17:08:15;;;;;;;2.10;1.20;;;;;;;15.70;81.15;99486.31;5071744;28;20036;-67
2023/03/23 17:10:42;;;;;;;1.33;1.20;;;;;;;15.70;79.89;99494.38;5071985;28;20394;-65
2023/03/23 17:13:08;;;;;;;1.20;1.05;;;;;;;15.67;79.65;99492.97;5072094;28;20036;-63
2023/03/23 17:15:39;;;;;;;3.05;1.35;;;;;;;15.66;79.91;99493.19;5071916;28;20055;-63
2023/03/23 17:18:05;;;;;;;1.83;1.13;;;;;;;15.62;81.94;99487.44;5071360;28;20124;-63
2023/03/23 17:20:31;;;;;;;3.92;2.80;;;;;;;15.59;82.04;99487.88;5073402;28;20025;-65
2023/03/23 17:22:58;;;;;;;2.47;1.30;;;;;;;15.51;81.49;99487.31;5072426;28;20159;-66
2023/03/23 17:25:25;;;;;;;1.77;1.60;;;;;;;15.45;83.99;99481.84;5071828;28;20123;-64
2023/03/23 17:27:51;;;;;;;1.92;1.30;;;;;;;15.45;84.87;99486.34;5071491;28;20422;-65
2023/03/23 17:30:17;;;;;;;1.77;0.95;;;;;;;15.39;84.67;99489.97;5071814;28;20036;-64